sensor_id;sensor_type;location;lat;lon;timestamp;pressure;altitude;pressure_sealevel;temperature;humidity
51603;BME280;37954;51.980;5.850;2024-01-30T00:02:21;102277.88;;;8.13;95.96
51603;BME280;37954;51.980;5.850;2024-01-30T00:06:32;102290.59;;;8.11;95.48
51603;BME280;37954;51.980;5.850;2024-01-30T00:10:44;102289.78;;;7.94;95.42
51603;BME280;37954;51.980;5.850;2024-01-30T00:14:56;102294.44;;;7.84;95.27
51603;BME280;37954;51.980;5.850;2024-01-30T00:19:07;102291.09;;;7.74;95.06
51603;BME280;37954;51.980;5.850;2024-01-30T00:23:20;102299.94;;;7.66;95.33
51603;BME280;37954;51.980;5.850;2024-01-30T00:27:31;102294.09;;;7.54;95.03
51603;BME280;37954;51.980;5.850;2024-01-30T00:31:43;102290.75;;;7.44;95.12
51603;BME280;37954;51.980;5.850;2024-01-30T00:35:55;102282.03;;;7.42;95.24
51603;BME280;37954;51.980;5.850;2024-01-30T00:40:07;102283.16;;;7.31;95.21
51603;BME280;37954;51.980;5.850;2024-01-30T00:44:19;102279.34;;;7.26;95.17
51603;BME280;37954;51.980;5.850;2024-01-30T00:48:30;102281.50;;;7.22;95.50
51603;BME280;37954;51.980;5.850;2024-01-30T00:52:42;102279.63;;;7.15;95.27
51603;BME280;37954;51.980;5.850;2024-01-30T00:56:56;102274.59;;;7.12;95.77
51603;BME280;37954;51.980;5.850;2024-01-30T01:01:08;102275.78;;;7.17;95.93
51603;BME280;37954;51.980;5.850;2024-01-30T01:05:20;102282.81;;;7.18;95.95
51603;BME280;37954;51.980;5.850;2024-01-30T01:09:32;102269.41;;;7.10;95.98
51603;BME280;37954;51.980;5.850;2024-01-30T01:13:43;102272.09;;;7.10;96.17
51603;BME280;37954;51.980;5.850;2024-01-30T01:17:55;102265.91;;;7.02;96.43
51603;BME280;37954;51.980;5.850;2024-01-30T01:22:07;102271.41;;;7.00;96.22
51603;BME280;37954;51.980;5.850;2024-01-30T01:26:19;102271.19;;;6.93;96.16
51603;BME280;37954;51.980;5.850;2024-01-30T01:30:31;102271.03;;;6.95;96.41
51603;BME280;37954;51.980;5.850;2024-01-30T01:34:43;102262.34;;;6.93;96.29
51603;BME280;37954;51.980;5.850;2024-01-30T01:38:55;102263.84;;;6.95;96.38
51603;BME280;37954;51.980;5.850;2024-01-30T01:43:06;102245.50;;;6.92;96.30
51603;BME280;37954;51.980;5.850;2024-01-30T01:47:18;102251.34;;;6.96;96.71
51603;BME280;37954;51.980;5.850;2024-01-30T01:51:31;102253.84;;;6.97;96.77
51603;BME280;37954;51.980;5.850;2024-01-30T01:55:45;102241.16;;;6.91;96.78
51603;BME280;37954;51.980;5.850;2024-01-30T01:59:57;102244.69;;;6.92;96.59
51603;BME280;37954;51.980;5.850;2024-01-30T02:04:09;102237.50;;;6.92;96.61
51603;BME280;37954;51.980;5.850;2024-01-30T02:08:22;102243.66;;;6.93;96.46
51603;BME280;37954;51.980;5.850;2024-01-30T02:12:33;102245.31;;;6.94;96.55
51603;BME280;37954;51.980;5.850;2024-01-30T02:16:45;102242.84;;;6.92;96.62
51603;BME280;37954;51.980;5.850;2024-01-30T02:20:58;102232.97;;;6.93;96.61
51603;BME280;37954;51.980;5.850;2024-01-30T02:25:13;102238.16;;;6.94;96.59
51603;BME280;37954;51.980;5.850;2024-01-30T02:29:25;102230.28;;;6.85;96.30
51603;BME280;37954;51.980;5.850;2024-01-30T02:33:36;102236.63;;;6.84;96.50
51603;BME280;37954;51.980;5.850;2024-01-30T02:37:48;102226.63;;;6.86;96.37
51603;BME280;37954;51.980;5.850;2024-01-30T02:42:00;102228.41;;;6.77;96.08
51603;BME280;37954;51.980;5.850;2024-01-30T02:46:11;102224.25;;;6.75;96.35
51603;BME280;37954;51.980;5.850;2024-01-30T02:50:23;102219.53;;;6.69;96.32
51603;BME280;37954;51.980;5.850;2024-01-30T02:54:35;102222.22;;;6.69;96.14
51603;BME280;37954;51.980;5.850;2024-01-30T02:58:47;102223.38;;;6.66;96.36
51603;BME280;37954;51.980;5.850;2024-01-30T03:02:59;102208.97;;;6.59;96.48
51603;BME280;37954;51.980;5.850;2024-01-30T03:07:11;102207.66;;;6.55;96.35
51603;BME280;37954;51.980;5.850;2024-01-30T03:11:23;102210.50;;;6.61;96.25
51603;BME280;37954;51.980;5.850;2024-01-30T03:15:34;102221.31;;;6.60;96.59
51603;BME280;37954;51.980;5.850;2024-01-30T03:19:46;102210.00;;;6.58;96.33
51603;BME280;37954;51.980;5.850;2024-01-30T03:23:57;102199.13;;;6.51;96.05
51603;BME280;37954;51.980;5.850;2024-01-30T03:28:09;102185.94;;;6.50;96.55
51603;BME280;37954;51.980;5.850;2024-01-30T03:32:21;102181.06;;;6.45;96.19
51603;BME280;37954;51.980;5.850;2024-01-30T03:36:33;102180.53;;;6.42;96.34
51603;BME280;37954;51.980;5.850;2024-01-30T03:40:45;102167.69;;;6.37;96.41
51603;BME280;37954;51.980;5.850;2024-01-30T03:44:57;102160.38;;;6.39;96.65
51603;BME280;37954;51.980;5.850;2024-01-30T03:49:09;102163.38;;;6.44;96.67
51603;BME280;37954;51.980;5.850;2024-01-30T03:53:21;102173.22;;;6.44;96.44
51603;BME280;37954;51.980;5.850;2024-01-30T03:57:33;102162.53;;;6.36;96.79
51603;BME280;37954;51.980;5.850;2024-01-30T04:01:46;102170.69;;;6.42;96.80
51603;BME280;37954;51.980;5.850;2024-01-30T04:05:58;102170.38;;;6.37;97.03
51603;BME280;37954;51.980;5.850;2024-01-30T04:10:10;102172.19;;;6.37;96.60
51603;BME280;37954;51.980;5.850;2024-01-30T04:14:21;102169.22;;;6.40;96.48
51603;BME280;37954;51.980;5.850;2024-01-30T04:18:33;102179.91;;;6.48;97.02
51603;BME280;37954;51.980;5.850;2024-01-30T04:22:46;102187.44;;;6.52;97.14
51603;BME280;37954;51.980;5.850;2024-01-30T04:26:57;102173.94;;;6.54;97.33
51603;BME280;37954;51.980;5.850;2024-01-30T04:31:09;102177.97;;;6.58;97.49
51603;BME280;37954;51.980;5.850;2024-01-30T04:35:21;102166.63;;;6.56;97.53
51603;BME280;37954;51.980;5.850;2024-01-30T04:39:36;102173.44;;;6.58;97.48
51603;BME280;37954;51.980;5.850;2024-01-30T04:43:48;102158.25;;;6.59;97.70
51603;BME280;37954;51.980;5.850;2024-01-30T04:48:00;102156.25;;;6.61;97.48
51603;BME280;37954;51.980;5.850;2024-01-30T04:52:12;102168.34;;;6.81;98.21
51603;BME280;37954;51.980;5.850;2024-01-30T04:56:24;102151.31;;;6.82;98.47
51603;BME280;37954;51.980;5.850;2024-01-30T05:00:35;102165.53;;;6.91;98.95
51603;BME280;37954;51.980;5.850;2024-01-30T05:04:47;102153.19;;;6.90;98.61
51603;BME280;37954;51.980;5.850;2024-01-30T05:08:59;102157.84;;;6.96;98.77
51603;BME280;37954;51.980;5.850;2024-01-30T05:13:19;102143.34;;;6.90;98.86
51603;BME280;37954;51.980;5.850;2024-01-30T05:17:30;102159.19;;;7.00;98.48
51603;BME280;37954;51.980;5.850;2024-01-30T05:21:42;102150.50;;;6.98;98.66
51603;BME280;37954;51.980;5.850;2024-01-30T05:25:54;102159.03;;;7.02;99.03
51603;BME280;37954;51.980;5.850;2024-01-30T05:30:06;102155.03;;;7.06;98.94
51603;BME280;37954;51.980;5.850;2024-01-30T05:34:18;102149.69;;;7.14;98.91
51603;BME280;37954;51.980;5.850;2024-01-30T05:38:30;102147.69;;;7.24;99.56
51603;BME280;37954;51.980;5.850;2024-01-30T05:42:43;102137.84;;;7.32;99.61
51603;BME280;37954;51.980;5.850;2024-01-30T05:46:55;102142.50;;;7.39;99.82
51603;BME280;37954;51.980;5.850;2024-01-30T05:51:07;102142.34;;;7.48;100.00
51603;BME280;37954;51.980;5.850;2024-01-30T05:55:19;102146.69;;;7.57;100.00
51603;BME280;37954;51.980;5.850;2024-01-30T05:59:31;102141.31;;;7.65;100.00
51603;BME280;37954;51.980;5.850;2024-01-30T06:03:43;102150.34;;;7.73;100.00
51603;BME280;37954;51.980;5.850;2024-01-30T06:07:55;102160.69;;;7.76;100.00
51603;BME280;37954;51.980;5.850;2024-01-30T06:12:07;102161.53;;;7.76;100.00
51603;BME280;37954;51.980;5.850;2024-01-30T06:16:19;102151.69;;;7.77;100.00
51603;BME280;37954;51.980;5.850;2024-01-30T06:20:32;102161.84;;;7.89;100.00
51603;BME280;37954;51.980;5.850;2024-01-30T06:24:44;102148.13;;;7.92;100.00
51603;BME280;37954;51.980;5.850;2024-01-30T06:28:56;102150.47;;;7.95;100.00
51603;BME280;37954;51.980;5.850;2024-01-30T06:33:08;102138.56;;;7.98;100.00
51603;BME280;37954;51.980;5.850;2024-01-30T06:37:20;102160.63;;;8.08;100.00
51603;BME280;37954;51.980;5.850;2024-01-30T06:41:31;102158.28;;;8.13;100.00
51603;BME280;37954;51.980;5.850;2024-01-30T06:45:43;102165.09;;;8.16;100.00
51603;BME280;37954;51.980;5.850;2024-01-30T06:49:55;102153.56;;;8.15;100.00
51603;BME280;37954;51.980;5.850;2024-01-30T06:54:07;102153.53;;;8.23;100.00
51603;BME280;37954;51.980;5.850;2024-01-30T06:58:18;102154.22;;;8.25;100.00
51603;BME280;37954;51.980;5.850;2024-01-30T07:02:30;102164.91;;;8.25;100.00
51603;BME280;37954;51.980;5.850;2024-01-30T07:06:42;102171.59;;;8.29;100.00
51603;BME280;37954;51.980;5.850;2024-01-30T07:10:54;102161.72;;;8.30;100.00
51603;BME280;37954;51.980;5.850;2024-01-30T07:15:11;102175.28;;;8.36;100.00
51603;BME280;37954;51.980;5.850;2024-01-30T07:19:23;102177.28;;;8.34;100.00
51603;BME280;37954;51.980;5.850;2024-01-30T07:23:35;102184.47;;;8.42;100.00
51603;BME280;37954;51.980;5.850;2024-01-30T07:27:50;102177.25;;;8.43;100.00
51603;BME280;37954;51.980;5.850;2024-01-30T07:32:01;102183.13;;;8.46;100.00
51603;BME280;37954;51.980;5.850;2024-01-30T07:36:13;102192.09;;;8.53;100.00
51603;BME280;37954;51.980;5.850;2024-01-30T07:40:25;102184.25;;;8.52;100.00
51603;BME280;37954;51.980;5.850;2024-01-30T07:44:37;102183.72;;;8.56;100.00
51603;BME280;37954;51.980;5.850;2024-01-30T07:48:48;102189.09;;;8.56;100.00
51603;BME280;37954;51.980;5.850;2024-01-30T07:53:04;102192.56;;;8.65;100.00
51603;BME280;37954;51.980;5.850;2024-01-30T07:57:15;102208.41;;;8.75;100.00
51603;BME280;37954;51.980;5.850;2024-01-30T08:01:28;102214.09;;;8.80;100.00
51603;BME280;37954;51.980;5.850;2024-01-30T08:05:40;102211.41;;;8.80;100.00
51603;BME280;37954;51.980;5.850;2024-01-30T08:09:51;102219.75;;;8.85;100.00
51603;BME280;37954;51.980;5.850;2024-01-30T08:14:03;102229.78;;;8.91;100.00
51603;BME280;37954;51.980;5.850;2024-01-30T08:18:15;102229.19;;;9.03;100.00
51603;BME280;37954;51.980;5.850;2024-01-30T08:22:26;102237.19;;;9.12;100.00
51603;BME280;37954;51.980;5.850;2024-01-30T08:26:38;102229.25;;;9.18;100.00
51603;BME280;37954;51.980;5.850;2024-01-30T08:30:50;102230.41;;;9.24;100.00
51603;BME280;37954;51.980;5.850;2024-01-30T08:35:02;102228.13;;;9.35;100.00
51603;BME280;37954;51.980;5.850;2024-01-30T08:39:17;102227.91;;;9.45;100.00
51603;BME280;37954;51.980;5.850;2024-01-30T08:43:31;102221.84;;;9.51;100.00
51603;BME280;37954;51.980;5.850;2024-01-30T08:47:44;102223.25;;;9.62;100.00
51603;BME280;37954;51.980;5.850;2024-01-30T08:51:55;102228.28;;;9.65;100.00
51603;BME280;37954;51.980;5.850;2024-01-30T08:56:09;102235.56;;;9.71;100.00
51603;BME280;37954;51.980;5.850;2024-01-30T09:00:21;102230.50;;;9.76;100.00
51603;BME280;37954;51.980;5.850;2024-01-30T09:04:33;102236.84;;;9.83;100.00
51603;BME280;37954;51.980;5.850;2024-01-30T09:08:44;102234.91;;;9.92;100.00
51603;BME280;37954;51.980;5.850;2024-01-30T09:12:56;102231.84;;;9.95;100.00
51603;BME280;37954;51.980;5.850;2024-01-30T09:17:08;102235.84;;;9.99;100.00
51603;BME280;37954;51.980;5.850;2024-01-30T09:21:20;102243.81;;;10.07;100.00
51603;BME280;37954;51.980;5.850;2024-01-30T09:25:32;102240.59;;;10.11;100.00
51603;BME280;37954;51.980;5.850;2024-01-30T09:29:45;102235.69;;;10.15;100.00
51603;BME280;37954;51.980;5.850;2024-01-30T09:33:57;102233.75;;;10.24;100.00
51603;BME280;37954;51.980;5.850;2024-01-30T09:38:09;102238.78;;;10.27;99.91
51603;BME280;37954;51.980;5.850;2024-01-30T09:42:35;102245.38;;;10.39;99.81
51603;BME280;37954;51.980;5.850;2024-01-30T09:46:47;102247.22;;;10.38;99.44
51603;BME280;37954;51.980;5.850;2024-01-30T09:51:00;102241.28;;;10.43;99.43
51603;BME280;37954;51.980;5.850;2024-01-30T09:55:12;102247.41;;;10.52;99.10
51603;BME280;37954;51.980;5.850;2024-01-30T09:59:25;102235.00;;;10.51;98.74
51603;BME280;37954;51.980;5.850;2024-01-30T10:03:37;102235.63;;;10.53;99.06
51603;BME280;37954;51.980;5.850;2024-01-30T10:07:56;102246.94;;;10.63;98.74
51603;BME280;37954;51.980;5.850;2024-01-30T10:12:12;102254.13;;;10.77;98.85
51603;BME280;37954;51.980;5.850;2024-01-30T10:16:24;102260.63;;;10.82;99.30
51603;BME280;37954;51.980;5.850;2024-01-30T10:20:37;102254.69;;;10.87;99.11
51603;BME280;37954;51.980;5.850;2024-01-30T10:24:49;102255.16;;;10.91;98.71
51603;BME280;37954;51.980;5.850;2024-01-30T10:29:01;102254.31;;;10.90;98.91
51603;BME280;37954;51.980;5.850;2024-01-30T10:33:14;102256.19;;;10.90;98.85
51603;BME280;37954;51.980;5.850;2024-01-30T10:37:26;102255.22;;;10.97;99.00
51603;BME280;37954;51.980;5.850;2024-01-30T10:41:47;102256.06;;;10.98;99.01
51603;BME280;37954;51.980;5.850;2024-01-30T10:46:10;102251.22;;;11.08;99.38
51603;BME280;37954;51.980;5.850;2024-01-30T10:50:26;102253.69;;;11.09;98.84
51603;BME280;37954;51.980;5.850;2024-01-30T10:54:40;102251.75;;;11.18;98.93
51603;BME280;37954;51.980;5.850;2024-01-30T10:58:52;102255.34;;;11.25;98.42
51603;BME280;37954;51.980;5.850;2024-01-30T11:03:04;102266.63;;;11.35;97.95
51603;BME280;37954;51.980;5.850;2024-01-30T11:07:24;102270.84;;;11.44;98.25
51603;BME280;37954;51.980;5.850;2024-01-30T11:11:49;102242.09;;;11.45;97.92
51603;BME280;37954;51.980;5.850;2024-01-30T11:16:05;102265.25;;;11.82;98.36
51603;BME280;37954;51.980;5.850;2024-01-30T11:20:19;102258.88;;;12.11;97.39
51603;BME280;37954;51.980;5.850;2024-01-30T11:24:39;102254.19;;;12.26;96.91
51603;BME280;37954;51.980;5.850;2024-01-30T11:28:52;102266.03;;;12.32;96.55
51603;BME280;37954;51.980;5.850;2024-01-30T11:33:09;102247.28;;;12.17;95.07
51603;BME280;37954;51.980;5.850;2024-01-30T11:37:25;102257.88;;;12.18;94.70
51603;BME280;37954;51.980;5.850;2024-01-30T11:41:38;102259.28;;;12.14;94.15
51603;BME280;37954;51.980;5.850;2024-01-30T11:45:51;102255.56;;;12.15;94.01
51603;BME280;37954;51.980;5.850;2024-01-30T11:50:04;102253.56;;;12.24;93.84
51603;BME280;37954;51.980;5.850;2024-01-30T11:54:18;102263.47;;;12.51;93.75
51603;BME280;37954;51.980;5.850;2024-01-30T11:58:29;102251.53;;;12.67;92.67
51603;BME280;37954;51.980;5.850;2024-01-30T12:02:42;102255.94;;;12.75;91.52
51603;BME280;37954;51.980;5.850;2024-01-30T12:06:53;102258.19;;;12.71;91.19
51603;BME280;37954;51.980;5.850;2024-01-30T12:11:06;102261.47;;;12.60;89.85
51603;BME280;37954;51.980;5.850;2024-01-30T12:15:19;102267.69;;;12.61;89.64
51603;BME280;37954;51.980;5.850;2024-01-30T12:19:33;102252.75;;;12.65;89.47
51603;BME280;37954;51.980;5.850;2024-01-30T12:23:45;102258.50;;;12.96;89.21
51603;BME280;37954;51.980;5.850;2024-01-30T12:27:57;102267.34;;;13.24;87.69
51603;BME280;37954;51.980;5.850;2024-01-30T12:32:15;102285.00;;;13.27;85.53
51603;BME280;37954;51.980;5.850;2024-01-30T12:36:28;102290.16;;;13.15;83.23
51603;BME280;37954;51.980;5.850;2024-01-30T12:40:40;102296.81;;;12.78;81.90
51603;BME280;37954;51.980;5.850;2024-01-30T12:44:52;102318.59;;;12.49;81.76
51603;BME280;37954;51.980;5.850;2024-01-30T12:49:04;102320.28;;;12.22;82.21
51603;BME280;37954;51.980;5.850;2024-01-30T12:53:16;102320.84;;;12.17;82.52
51603;BME280;37954;51.980;5.850;2024-01-30T12:57:28;102313.50;;;12.05;82.23
51603;BME280;37954;51.980;5.850;2024-01-30T13:01:40;102328.44;;;12.07;82.37
51603;BME280;37954;51.980;5.850;2024-01-30T13:05:51;102329.59;;;11.98;82.48
51603;BME280;37954;51.980;5.850;2024-01-30T13:10:03;102325.44;;;11.96;82.52
51603;BME280;37954;51.980;5.850;2024-01-30T13:14:16;102318.19;;;11.96;82.74
51603;BME280;37954;51.980;5.850;2024-01-30T13:18:27;102325.78;;;12.14;82.31
51603;BME280;37954;51.980;5.850;2024-01-30T13:22:40;102321.25;;;12.14;81.25
51603;BME280;37954;51.980;5.850;2024-01-30T13:26:51;102326.41;;;12.09;79.73
51603;BME280;37954;51.980;5.850;2024-01-30T13:31:29;102330.59;;;12.18;79.03
51603;BME280;37954;51.980;5.850;2024-01-30T13:35:41;102336.47;;;12.01;77.09
51603;BME280;37954;51.980;5.850;2024-01-30T13:39:52;102351.16;;;11.77;76.90
51603;BME280;37954;51.980;5.850;2024-01-30T13:44:04;102357.88;;;11.51;77.95
51603;BME280;37954;51.980;5.850;2024-01-30T13:48:16;102356.63;;;11.33;79.31
51603;BME280;37954;51.980;5.850;2024-01-30T13:52:28;102356.47;;;11.20;80.89
51603;BME280;37954;51.980;5.850;2024-01-30T13:56:48;102358.41;;;11.11;81.67
51603;BME280;37954;51.980;5.850;2024-01-30T14:01:00;102371.03;;;10.96;81.84
51603;BME280;37954;51.980;5.850;2024-01-30T14:05:12;102374.00;;;10.86;82.89
51603;BME280;37954;51.980;5.850;2024-01-30T14:09:24;102372.88;;;10.66;83.52
51603;BME280;37954;51.980;5.850;2024-01-30T14:13:36;102380.94;;;10.66;83.65
51603;BME280;37954;51.980;5.850;2024-01-30T14:17:48;102389.84;;;10.66;84.25
51603;BME280;37954;51.980;5.850;2024-01-30T14:22:01;102407.00;;;10.80;84.71
51603;BME280;37954;51.980;5.850;2024-01-30T14:26:13;102402.81;;;10.77;84.49
51603;BME280;37954;51.980;5.850;2024-01-30T14:30:25;102415.25;;;10.78;84.38
51603;BME280;37954;51.980;5.850;2024-01-30T14:34:36;102407.34;;;10.77;84.55
51603;BME280;37954;51.980;5.850;2024-01-30T14:38:48;102408.00;;;10.79;84.69
51603;BME280;37954;51.980;5.850;2024-01-30T14:43:00;102413.22;;;10.80;84.92
51603;BME280;37954;51.980;5.850;2024-01-30T14:47:12;102416.72;;;10.81;84.66
51603;BME280;37954;51.980;5.850;2024-01-30T14:51:24;102417.94;;;10.78;84.80
51603;BME280;37954;51.980;5.850;2024-01-30T14:55:36;102412.88;;;10.61;84.82
51603;BME280;37954;51.980;5.850;2024-01-30T14:59:48;102426.69;;;10.58;85.36
51603;BME280;37954;51.980;5.850;2024-01-30T15:04:00;102421.56;;;10.48;86.26
51603;BME280;37954;51.980;5.850;2024-01-30T15:08:11;102418.94;;;10.40;86.82
51603;BME280;37954;51.980;5.850;2024-01-30T15:12:23;102442.09;;;10.41;86.99
51603;BME280;37954;51.980;5.850;2024-01-30T15:16:35;102438.31;;;10.35;87.31
51603;BME280;37954;51.980;5.850;2024-01-30T15:20:47;102446.91;;;10.31;87.56
51603;BME280;37954;51.980;5.850;2024-01-30T15:24:59;102456.22;;;10.20;88.06
51603;BME280;37954;51.980;5.850;2024-01-30T15:29:11;102448.84;;;10.14;88.35
51603;BME280;37954;51.980;5.850;2024-01-30T15:33:23;102451.53;;;10.14;88.87
51603;BME280;37954;51.980;5.850;2024-01-30T15:37:36;102464.47;;;10.10;88.96
51603;BME280;37954;51.980;5.850;2024-01-30T15:41:48;102464.63;;;10.09;89.08
51603;BME280;37954;51.980;5.850;2024-01-30T15:46:00;102472.94;;;9.99;89.58
51603;BME280;37954;51.980;5.850;2024-01-30T15:50:15;102489.06;;;9.91;90.39
51603;BME280;37954;51.980;5.850;2024-01-30T15:54:27;102507.25;;;9.81;91.84
51603;BME280;37954;51.980;5.850;2024-01-30T15:58:49;102501.44;;;9.69;93.21
51603;BME280;37954;51.980;5.850;2024-01-30T16:03:04;102500.00;;;9.51;94.76
51603;BME280;37954;51.980;5.850;2024-01-30T16:07:16;102512.25;;;9.45;95.92
51603;BME280;37954;51.980;5.850;2024-01-30T16:11:28;102518.63;;;9.36;96.92
51603;BME280;37954;51.980;5.850;2024-01-30T16:15:39;102521.84;;;9.31;97.18
51603;BME280;37954;51.980;5.850;2024-01-30T16:19:54;102528.06;;;9.32;97.78
51603;BME280;37954;51.980;5.850;2024-01-30T16:24:06;102527.22;;;9.31;98.20
51603;BME280;37954;51.980;5.850;2024-01-30T16:28:18;102536.56;;;9.35;98.51
51603;BME280;37954;51.980;5.850;2024-01-30T16:32:30;102539.63;;;9.32;98.98
51603;BME280;37954;51.980;5.850;2024-01-30T16:36:43;102541.97;;;9.27;99.55
51603;BME280;37954;51.980;5.850;2024-01-30T16:40:57;102538.28;;;9.20;99.93
51603;BME280;37954;51.980;5.850;2024-01-30T16:45:09;102549.00;;;9.20;100.00
51603;BME280;37954;51.980;5.850;2024-01-30T16:49:20;102550.19;;;9.18;100.00
51603;BME280;37954;51.980;5.850;2024-01-30T16:53:32;102553.72;;;9.10;100.00
51603;BME280;37954;51.980;5.850;2024-01-30T16:57:45;102573.31;;;9.11;100.00
51603;BME280;37954;51.980;5.850;2024-01-30T17:01:57;102584.38;;;9.07;100.00
51603;BME280;37954;51.980;5.850;2024-01-30T17:06:12;102595.94;;;9.08;100.00
51603;BME280;37954;51.980;5.850;2024-01-30T17:10:24;102589.22;;;9.04;100.00
51603;BME280;37954;51.980;5.850;2024-01-30T17:14:36;102605.63;;;9.01;100.00
51603;BME280;37954;51.980;5.850;2024-01-30T17:18:51;102609.00;;;9.03;100.00
51603;BME280;37954;51.980;5.850;2024-01-30T17:23:02;102615.19;;;9.03;100.00
51603;BME280;37954;51.980;5.850;2024-01-30T17:27:40;102626.91;;;9.02;100.00
51603;BME280;37954;51.980;5.850;2024-01-30T17:31:52;102633.13;;;9.03;100.00
51603;BME280;37954;51.980;5.850;2024-01-30T17:36:04;102622.91;;;8.98;100.00
51603;BME280;37954;51.980;5.850;2024-01-30T17:40:15;102623.06;;;9.05;100.00
51603;BME280;37954;51.980;5.850;2024-01-30T17:44:27;102627.09;;;9.09;100.00
51603;BME280;37954;51.980;5.850;2024-01-30T17:48:39;102627.94;;;9.01;100.00
51603;BME280;37954;51.980;5.850;2024-01-30T17:52:51;102638.66;;;9.01;100.00
51603;BME280;37954;51.980;5.850;2024-01-30T17:57:05;102629.59;;;8.86;100.00
51603;BME280;37954;51.980;5.850;2024-01-30T18:01:17;102656.09;;;8.97;100.00
51603;BME280;37954;51.980;5.850;2024-01-30T18:05:28;102659.25;;;9.01;100.00
51603;BME280;37954;51.980;5.850;2024-01-30T18:09:40;102670.81;;;9.01;100.00
51603;BME280;37954;51.980;5.850;2024-01-30T18:13:52;102672.66;;;8.93;100.00
51603;BME280;37954;51.980;5.850;2024-01-30T18:18:07;102678.34;;;8.90;100.00
51603;BME280;37954;51.980;5.850;2024-01-30T18:22:19;102700.97;;;8.95;100.00
51603;BME280;37954;51.980;5.850;2024-01-30T18:26:31;102693.63;;;8.97;100.00
51603;BME280;37954;51.980;5.850;2024-01-30T18:30:43;102707.03;;;8.97;100.00
51603;BME280;37954;51.980;5.850;2024-01-30T18:34:54;102703.50;;;8.97;100.00
51603;BME280;37954;51.980;5.850;2024-01-30T18:39:06;102710.88;;;8.95;100.00
51603;BME280;37954;51.980;5.850;2024-01-30T18:43:18;102710.50;;;8.90;100.00
51603;BME280;37954;51.980;5.850;2024-01-30T18:47:30;102716.69;;;8.82;100.00
51603;BME280;37954;51.980;5.850;2024-01-30T18:51:42;102727.41;;;8.82;100.00
51603;BME280;37954;51.980;5.850;2024-01-30T18:55:54;102741.16;;;8.87;100.00
51603;BME280;37954;51.980;5.850;2024-01-30T19:00:06;102739.16;;;8.89;100.00
51603;BME280;37954;51.980;5.850;2024-01-30T19:04:18;102754.38;;;8.89;100.00
51603;BME280;37954;51.980;5.850;2024-01-30T19:08:30;102751.19;;;8.85;100.00
51603;BME280;37954;51.980;5.850;2024-01-30T19:12:42;102761.91;;;8.85;100.00
51603;BME280;37954;51.980;5.850;2024-01-30T19:16:54;102771.47;;;8.88;100.00
51603;BME280;37954;51.980;5.850;2024-01-30T19:21:06;102774.78;;;8.73;100.00
51603;BME280;37954;51.980;5.850;2024-01-30T19:25:18;102774.94;;;8.72;100.00
51603;BME280;37954;51.980;5.850;2024-01-30T19:29:29;102767.50;;;8.58;100.00
51603;BME280;37954;51.980;5.850;2024-01-30T19:33:41;102780.91;;;8.58;100.00
51603;BME280;37954;51.980;5.850;2024-01-30T19:37:53;102788.81;;;8.67;100.00
51603;BME280;37954;51.980;5.850;2024-01-30T19:42:07;102799.50;;;8.67;100.00
51603;BME280;37954;51.980;5.850;2024-01-30T19:46:18;102810.59;;;8.72;100.00
51603;BME280;37954;51.980;5.850;2024-01-30T19:50:30;102816.44;;;8.68;100.00
51603;BME280;37954;51.980;5.850;2024-01-30T19:54:42;102820.00;;;8.77;100.00
51603;BME280;37954;51.980;5.850;2024-01-30T19:58:54;102814.59;;;8.68;100.00
51603;BME280;37954;51.980;5.850;2024-01-30T20:03:06;102822.28;;;8.63;100.00
51603;BME280;37954;51.980;5.850;2024-01-30T20:07:17;102837.94;;;8.50;100.00
51603;BME280;37954;51.980;5.850;2024-01-30T20:11:29;102837.78;;;8.52;100.00
51603;BME280;37954;51.980;5.850;2024-01-30T20:15:41;102824.34;;;8.44;100.00
51603;BME280;37954;51.980;5.850;2024-01-30T20:19:52;102827.88;;;8.44;100.00
51603;BME280;37954;51.980;5.850;2024-01-30T20:24:05;102848.78;;;8.49;100.00
51603;BME280;37954;51.980;5.850;2024-01-30T20:28:17;102857.19;;;8.46;100.00
51603;BME280;37954;51.980;5.850;2024-01-30T20:32:29;102855.50;;;8.45;100.00
51603;BME280;37954;51.980;5.850;2024-01-30T20:36:41;102875.94;;;8.46;100.00
51603;BME280;37954;51.980;5.850;2024-01-30T20:40:55;102874.09;;;8.46;100.00
51603;BME280;37954;51.980;5.850;2024-01-30T20:45:07;102890.84;;;8.48;100.00
51603;BME280;37954;51.980;5.850;2024-01-30T20:49:19;102883.41;;;8.42;100.00
51603;BME280;37954;51.980;5.850;2024-01-30T20:53:31;102894.13;;;8.42;100.00
51603;BME280;37954;51.980;5.850;2024-01-30T20:57:43;102891.22;;;8.35;100.00
51603;BME280;37954;51.980;5.850;2024-01-30T21:01:56;102903.78;;;8.35;100.00
51603;BME280;37954;51.980;5.850;2024-01-30T21:06:07;102890.84;;;8.30;100.00
51603;BME280;37954;51.980;5.850;2024-01-30T21:10:21;102898.72;;;8.32;100.00
51603;BME280;37954;51.980;5.850;2024-01-30T21:14:32;102900.88;;;8.28;100.00
51603;BME280;37954;51.980;5.850;2024-01-30T21:18:44;102911.13;;;8.33;100.00
51603;BME280;37954;51.980;5.850;2024-01-30T21:22:56;102915.41;;;8.26;100.00
51603;BME280;37954;51.980;5.850;2024-01-30T21:27:07;102917.94;;;8.27;100.00
51603;BME280;37954;51.980;5.850;2024-01-30T21:31:19;102928.09;;;8.24;100.00
51603;BME280;37954;51.980;5.850;2024-01-30T21:35:31;102914.88;;;8.22;100.00
51603;BME280;37954;51.980;5.850;2024-01-30T21:39:42;102917.69;;;8.21;100.00
51603;BME280;37954;51.980;5.850;2024-01-30T21:43:54;102920.81;;;8.16;100.00
51603;BME280;37954;51.980;5.850;2024-01-30T21:48:06;102926.19;;;8.16;100.00
51603;BME280;37954;51.980;5.850;2024-01-30T21:52:18;102935.06;;;8.17;100.00
51603;BME280;37954;51.980;5.850;2024-01-30T21:56:30;102935.84;;;8.09;100.00
51603;BME280;37954;51.980;5.850;2024-01-30T22:00:41;102940.94;;;8.02;100.00
51603;BME280;37954;51.980;5.850;2024-01-30T22:04:53;102936.38;;;7.95;100.00